Alloy, WV

7:47 PM EDT on July 10, 2014 (GMT -0400)
KWVGLENF2 Elev 676 ft | 38.15 °N, 81.22 °W | Change Station

Current weather conditions updated 16 minutes ago

Mostly Cloudy
Mostly Cloudy
79.0 °F
Feels Like 81 °F
N
0.0
Wind Variable Wind from WNW
Gusts 0.0 mph

Tomorrow is forecast to be nearly the same temperature as today.

Today
High -- | Low -- °F
--% Chance of Precip.
Yesterday
High -- | Low -- °F
Precip. -- in
6:10 AM 8:50 PM
Waxing Gibbous, 97% visible
Pressure 30.03 in
Visibility 10.0 miles
Clouds Scattered Clouds 5000 ft
Scattered Clouds 8000 ft
Mostly Cloudy 12000 ft
Heat Index 81 °F
Dew Point 65 °F
Humidity 62%
Rainfall 0.00 in
Snow Depth Not available.
UV 1 out of 12
Pollen 3.20 out of 12
Air Quality Not available.
Flu Activity Sporadic
METAR KCRW 102254Z 05004KT 10SM SCT050 SCT080 BKN120 28/17 A3005 RMK AO2 SLP168 T02780172

More Conditions Fewer Conditions

Pressure 30.03 in
Visibility 10.0 miles
Clouds Scattered Clouds 5000 ft
Scattered Clouds 8000 ft
Mostly Cloudy 12000 ft
Heat Index 81 °F
Dew Point 65 °F
Humidity 62%
Rainfall 0.00 in
Snow Depth Not available.
UV 1 out of 12
Pollen 3.20 out of 12
Air Quality Not available.
Flu Activity Sporadic
METAR KCRW 102254Z 05004KT 10SM SCT050 SCT080 BKN120 28/17 A3005 RMK AO2 SLP168 T02780172

More Conditions Fewer Conditions

10-Day Weather Forecast

Almanac

Astronomy

Jul. 10, 2014 Rise Set
Actual Time 6:10 AM EDT 8:50 PM EDT
Civil Twilight 5:39 AM EDT 9:21 PM EDT
Nautical Twilight 5:01 AM EDT 9:59 PM EDT
Astronomical Twilight 4:17 AM EDT 10:43 PM EDT
Moon 7:02 PM EDT 4:20 AM EDT
Length of Visible Light 15h 41m
Length of Day
14h 39m
Tomorrow will be 1m 2s shorter.
Waxing Gibbous, 97% of the Moon is Illuminated
Today
Waxing Gibbous
Jul 12
Full
Jul 18
Last Quarter
Jul 26
New
Aug 3
First Quarter

Today's Extremes

State Highs State Lows

Community

WunderPhotos

Upload Photos

1,732,296 photos uploaded!

Nearby

Snow Depth

Station Depth Elevation
No new snow has been reported.

Earthquake Activity

City Distance Mag. Time & Date
No recent earthquake activity has been reported nearby.
Minimum magnitude displayed is 2.5.

Coastal Water Temperatures

Place Temperature
No Stations Reporting

Nearby Weather Stations

Station Location Temp. Heat Index Dew Point Humidity Wind Precip. Elev Updated Type
Glen Ferris, WV 79.0 °F 81 °F 65 °F 62% WNW  at  0.0 mph 0.00 in / hr 676 ft 7:31 PM EDT Normal
., Gauley Bridge, WV 79.5 °F 80 °F 59 °F 50% WNW  at  0.0 mph 0.00 in / hr 804 ft 7:47 PM EDT Rapid Fire
Joes Creek, Comfort, WV 74.1 °F 74 °F 69 °F 84% NW  at  0.0 mph 0.00 in / hr 784 ft 7:47 PM EDT Rapid Fire
RAWS BEE MOUNTAIN WV, Hernshaw, WV 80 °F 81 °F 63 °F 56% NE  at  4 mph 0.00 in / hr 1353 ft 7:17 PM EDT MADIS
Coopers Creek Road, Charleston, WV 77.6 °F 80 °F 67 °F 70% NNE  at  1.0 mph 0.00 in / hr 696 ft 7:43 PM EDT Normal
F.I.T. - Oyler Ave., Oak Hill, WV 78.1 °F 80 °F 64 °F 61% NNW  at  0.0 mph 0.00 in / hr 1988 ft 7:47 PM EDT Rapid Fire

Show More Stations Show Fewer Stations